Bruce Mines, Canada
Current Conditions -  °F | °C
As of 11:35 AM on Wednesday 22 Oct 2014 (Local Time) from KDRM Reporting Station
Clear Clear  
Wind Chill: 44°   Ceiling: Unl
Heat Index: 44°   Visibility: 10mi
Dew Point: 35°   Wind: 0mph
Humidity: 71%   Direction: NA
Pressure: 30.41"   Gusts: NA
Location:  46.3°N, 83.79°W
Report Text: KDRM 221535Z AUTO 00000KT 10SM CLR 07/02 A3041 RMK AO2 T00650016
Loading
Personal Weather Stations






























Interactive Weather Map New forecast layout! Learn more

10-Day Weather Forecast

Advertisements
Track Severe Weather on mobile